Terminal Aerodrome Forecast
Issued by NWS Binghamton, NY

Home | Current Version | Previous Version | Text Only | Print | Product List | Glossary On
Versions: 1 2 3 4 5 6 7 8 9 10 11 12 13 14 15 16 17 18 19 20
092
FTUS41 KBGM 060531
TAFSYR
TAF
KSYR 060531Z 0606/0706 22007KT P6SM BKN070
     FM061400 24010G18KT P6SM BKN050
     FM062300 25005KT P6SM SCT040 SCT100=

USA.gov is the U.S. government's official web portal to all federal, state and local government web resources and services.